Terminal Aerodrome Forecast
Issued by NWS

Home | Current Version | Previous Version | Graphics & Text | Print | Product List | Glossary On
Versions: 1 2 3 4 5 6 7 8 9 10 11 12 13 14 15 16 17 18 19
360
FTUS43 KMPX 211139
TAFRNH
TAF
KRNH 211139Z 2112/2212 21004KT 5SM BR BKN006
      TEMPO 2112/2114 1/2SM FG VV002
     FM211400 20005KT 4SM BR SCT008
     FM211600 20009KT P6SM SCT250
     FM211800 20012G20KT P6SM SCT250
     FM212300 19007KT P6SM SCT250=

USA.gov is the U.S. government's official web portal to all federal, state and local government web resources and services.